Time;durP1;ratioP1;P1;durP2;ratioP2;P2;SDS_P1;SDS_P2;PMS_P1;PMS_P2;Temp;Humidity;BMP_temperature;BMP_pressure;BME280_temperature;BME280_humidity;BME280_pressure;Samples;Min_cycle;Max_cycle;Signal;HPM_P1;HPM_P2
2023/10/25 00:01:23;;;;;;;13.90;8.65;;;;;;;;;;5027865;28;20552;-69
2023/10/25 00:03:48;;;;;;;12.75;8.20;;;;;;;;;;5024358;28;20201;-69
2023/10/25 00:06:13;;;;;;;13.18;8.00;;;;;;;;;;5026147;28;20201;-70
2023/10/25 00:08:39;;;;;;;17.60;8.45;;;;;;;;;;5038807;28;20315;-69
2023/10/25 00:11:06;;;;;;;15.48;9.65;;;;;;;;;;5023334;28;20205;-70
2023/10/25 00:13:32;;;;;;;18.70;10.75;;;;;;;;;;5019872;28;20695;-69
2023/10/25 00:15:58;;;;;;;17.42;10.82;;;;;;;;;;5028454;28;20234;-69
2023/10/25 00:18:24;;;;;;;21.20;10.85;;;;;;;;;;5031647;28;20189;-69
2023/10/25 00:20:50;;;;;;;14.82;10.68;;;;;;;;;;5017844;28;20565;-69
2023/10/25 00:23:16;;;;;;;19.33;10.68;;;;;;;;;;5023327;28;20194;-70
2023/10/25 00:25:41;;;;;;;14.63;9.73;;;;;;;;;;5024034;28;20547;-69
2023/10/25 00:28:06;;;;;;;23.08;11.45;;;;;;;;;;5025442;28;20253;-69
2023/10/25 00:30:32;;;;;;;16.10;10.85;;;;;;;;;;5025757;28;20178;-69
2023/10/25 00:32:57;;;;;;;18.67;9.95;;;;;;;;;;5019573;28;20281;-69
2023/10/25 00:35:22;;;;;;;15.75;9.30;;;;;;;;;;5027330;28;20192;-69
2023/10/25 00:37:48;;;;;;;19.50;10.48;;;;;;;;;;5034898;28;20212;-69
2023/10/25 00:40:13;;;;;;;15.88;8.88;;;;;;;;;;5045855;28;20233;-69
2023/10/25 00:42:39;;;;;;;18.13;9.60;;;;;;;;;;5037448;28;20304;-68
2023/10/25 00:45:04;;;;;;;16.30;9.32;;;;;;;;;;5028482;28;20209;-68
2023/10/25 00:47:30;;;;;;;17.52;9.40;;;;;;;;;;5021745;28;20528;-68
2023/10/25 00:49:56;;;;;;;14.07;9.32;;;;;;;;;;5019345;28;20189;-67
2023/10/25 00:52:21;;;;;;;18.60;10.23;;;;;;;;;;5028484;28;20194;-68
2023/10/25 00:54:47;;;;;;;16.52;9.25;;;;;;;;;;5026029;28;20197;-68
2023/10/25 00:57:14;;;;;;;18.17;9.50;;;;;;;;;;5021120;28;20273;-68
2023/10/25 00:59:40;;;;;;;14.75;8.75;;;;;;;;;;5022053;28;20217;-68
2023/10/25 01:02:07;;;;;;;19.15;10.15;;;;;;;;;;5017696;28;20553;-68
2023/10/25 01:04:33;;;;;;;20.92;10.18;;;;;;;;;;5015157;28;20187;-68
2023/10/25 01:06:59;;;;;;;15.75;8.90;;;;;;;;;;5025905;28;20185;-68
2023/10/25 01:09:24;;;;;;;20.05;9.35;;;;;;;;;;5037933;28;20545;-68
2023/10/25 01:11:50;;;;;;;15.80;9.23;;;;;;;;;;5014950;28;20206;-68
2023/10/25 01:14:15;;;;;;;16.70;10.05;;;;;;;;;;5022406;28;20191;-68
2023/10/25 01:16:40;;;;;;;17.13;9.10;;;;;;;;;;5026177;28;20245;-69
2023/10/25 01:19:06;;;;;;;19.20;9.02;;;;;;;;;;5021221;28;20186;-68
2023/10/25 01:21:31;;;;;;;15.85;8.45;;;;;;;;;;5047270;28;20217;-68
2023/10/25 01:23:57;;;;;;;14.35;9.35;;;;;;;;;;5030696;28;20236;-68
2023/10/25 01:26:22;;;;;;;24.25;9.75;;;;;;;;;;5024793;28;20292;-68
2023/10/25 01:28:47;;;;;;;18.30;9.77;;;;;;;;;;5030855;28;20198;-69
2023/10/25 01:31:13;;;;;;;18.58;10.70;;;;;;;;;;5026998;28;20206;-67
2023/10/25 01:33:38;;;;;;;13.68;9.57;;;;;;;;;;5025880;28;20633;-68
2023/10/25 01:36:04;;;;;;;20.35;9.70;;;;;;;;;;5042797;28;20228;-68
2023/10/25 01:38:29;;;;;;;16.90;9.05;;;;;;;;;;5026199;28;20187;-68
2023/10/25 01:40:55;;;;;;;16.58;8.38;;;;;;;;;;5029434;28;20217;-69
2023/10/25 01:43:21;;;;;;;13.82;8.30;;;;;;;;;;5026015;28;20787;-68
2023/10/25 01:45:46;;;;;;;13.63;7.93;;;;;;;;;;5024911;28;20537;-68
2023/10/25 01:48:11;;;;;;;17.13;8.20;;;;;;;;;;5059580;28;20208;-68
2023/10/25 01:50:37;;;;;;;16.92;8.23;;;;;;;;;;5027738;28;20213;-68
2023/10/25 01:53:02;;;;;;;15.55;8.75;;;;;;;;;;5027175;28;20186;-69
2023/10/25 01:55:28;;;;;;;16.33;8.90;;;;;;;;;;5031725;28;20256;-68
2023/10/25 01:57:53;;;;;;;13.00;8.88;;;;;;;;;;5026663;28;20190;-68
2023/10/25 02:00:18;;;;;;;12.63;8.43;;;;;;;;;;5023588;28;20343;-68
2023/10/25 02:02:44;;;;;;;15.30;9.00;;;;;;;;;;5022162;28;20559;-69
2023/10/25 02:05:09;;;;;;;19.30;9.85;;;;;;;;;;5028571;28;20190;-68
2023/10/25 02:07:35;;;;;;;18.50;8.50;;;;;;;;;;5030447;28;20197;-68
2023/10/25 02:10:00;;;;;;;14.65;8.73;;;;;;;;;;5025026;28;20183;-68
2023/10/25 02:12:26;;;;;;;19.40;8.30;;;;;;;;;;5021767;28;20186;-69
2023/10/25 02:14:51;;;;;;;13.38;7.72;;;;;;;;;;5024535;28;20261;-68
2023/10/25 02:17:17;;;;;;;13.48;8.77;;;;;;;;;;5039691;28;20602;-69
2023/10/25 02:19:45;;;;;;;14.20;8.32;;;;;;;;;;5037071;28;20336;-69
2023/10/25 02:22:10;;;;;;;14.82;8.68;;;;;;;;;;5034678;28;20198;-69
2023/10/25 02:24:36;;;;;;;12.60;8.68;;;;;;;;;;5026840;28;20194;-69
2023/10/25 02:27:01;;;;;;;15.32;8.82;;;;;;;;;;5029371;28;20304;-69
2023/10/25 02:29:27;;;;;;;15.75;8.82;;;;;;;;;;5031256;28;20244;-69
2023/10/25 02:31:52;;;;;;;17.70;8.70;;;;;;;;;;5030014;28;20253;-68
2023/10/25 02:34:17;;;;;;;16.92;8.07;;;;;;;;;;5024117;28;20194;-69
2023/10/25 02:36:43;;;;;;;14.98;9.13;;;;;;;;;;5029932;28;20213;-68
2023/10/25 02:39:09;;;;;;;12.85;7.35;;;;;;;;;;5032348;28;20193;-68
2023/10/25 02:41:35;;;;;;;19.05;8.75;;;;;;;;;;5037313;28;20232;-68
2023/10/25 02:44:01;;;;;;;17.83;9.02;;;;;;;;;;5015442;28;20228;-67
2023/10/25 02:46:26;;;;;;;13.10;8.27;;;;;;;;;;5024417;28;20187;-68
2023/10/25 02:48:52;;;;;;;20.98;8.75;;;;;;;;;;5025200;28;20241;-68
2023/10/25 02:51:18;;;;;;;16.50;8.65;;;;;;;;;;5028915;28;20639;-68
2023/10/25 02:53:43;;;;;;;14.43;6.90;;;;;;;;;;5030567;28;20203;-67
2023/10/25 02:56:08;;;;;;;16.25;9.43;;;;;;;;;;5041081;28;20187;-68
2023/10/25 02:58:34;;;;;;;17.05;7.20;;;;;;;;;;5027091;28;20248;-68
2023/10/25 03:01:00;;;;;;;20.02;8.13;;;;;;;;;;5028537;28;20661;-68
2023/10/25 03:03:27;;;;;;;14.25;7.15;;;;;;;;;;5027717;28;20186;-69
2023/10/25 03:05:53;;;;;;;15.93;8.68;;;;;;;;;;5031390;28;20193;-68
2023/10/25 03:08:18;;;;;;;16.67;8.70;;;;;;;;;;5042899;28;20238;-68
2023/10/25 03:10:44;;;;;;;13.43;7.68;;;;;;;;;;5033900;28;20190;-68
2023/10/25 03:13:09;;;;;;;14.50;7.32;;;;;;;;;;5026843;28;20190;-69
2023/10/25 03:15:34;;;;;;;13.63;7.88;;;;;;;;;;5026268;28;20405;-69
2023/10/25 03:18:01;;;;;;;14.93;6.72;;;;;;;;;;5028955;28;20183;-68
2023/10/25 03:20:26;;;;;;;14.05;8.30;;;;;;;;;;5028693;28;20845;-68
2023/10/25 03:22:52;;;;;;;18.85;10.10;;;;;;;;;;5027880;28;20219;-68
2023/10/25 03:25:17;;;;;;;21.30;10.15;;;;;;;;;;5015361;28;20301;-68
2023/10/25 03:27:43;;;;;;;23.33;9.45;;;;;;;;;;5030214;28;20637;-68
2023/10/25 03:30:08;;;;;;;21.15;9.60;;;;;;;;;;5029014;28;20221;-68
2023/10/25 03:32:34;;;;;;;16.92;8.27;;;;;;;;;;5041279;28;20256;-68
2023/10/25 03:34:59;;;;;;;16.23;7.82;;;;;;;;;;5028731;28;20193;-69
2023/10/25 03:37:25;;;;;;;17.50;8.20;;;;;;;;;;5028814;28;20201;-68
2023/10/25 03:39:50;;;;;;;18.48;8.27;;;;;;;;;;5026377;28;20687;-70
2023/10/25 03:42:15;;;;;;;14.57;7.70;;;;;;;;;;5030869;28;20213;-68
2023/10/25 03:44:41;;;;;;;16.95;7.70;;;;;;;;;;5025980;28;20194;-70
2023/10/25 03:47:06;;;;;;;13.43;7.45;;;;;;;;;;5025887;28;20202;-70
2023/10/25 03:49:31;;;;;;;13.52;7.20;;;;;;;;;;5018778;28;20209;-68
2023/10/25 03:51:57;;;;;;;17.42;7.70;;;;;;;;;;5023488;28;20261;-69
2023/10/25 03:54:22;;;;;;;12.32;6.82;;;;;;;;;;5014785;28;20277;-69
2023/10/25 03:56:48;;;;;;;13.82;6.80;;;;;;;;;;5025767;28;20205;-69
2023/10/25 03:59:15;;;;;;;20.05;8.27;;;;;;;;;;5014888;28;20713;-69
2023/10/25 04:01:40;;;;;;;17.05;8.77;;;;;;;;;;5011040;28;20260;-68
2023/10/25 04:04:06;;;;;;;23.25;9.02;;;;;;;;;;5021555;28;20654;-69
2023/10/25 04:06:32;;;;;;;16.27;9.35;;;;;;;;;;5019597;28;20280;-69
2023/10/25 04:08:57;;;;;;;19.33;9.48;;;;;;;;;;5018443;28;20189;-69
2023/10/25 04:11:23;;;;;;;13.55;8.13;;;;;;;;;;5012813;28;20190;-69
2023/10/25 04:13:48;;;;;;;19.23;9.73;;;;;;;;;;5040049;28;20194;-69
2023/10/25 04:16:14;;;;;;;16.08;8.90;;;;;;;;;;5027325;28;20256;-69
2023/10/25 04:18:39;;;;;;;18.70;8.05;;;;;;;;;;5025731;28;20183;-69
2023/10/25 04:21:10;;;;;;;17.48;8.13;;;;;;;;;;5024432;28;20214;-69
2023/10/25 04:23:36;;;;;;;13.32;7.03;;;;;;;;;;5028224;28;20256;-69
2023/10/25 04:26:12;;;;;;;15.25;7.90;;;;;;;;;;5028961;28;20228;-69
2023/10/25 04:28:41;;;;;;;16.13;7.53;;;;;;;;;;5025568;28;20189;-69
2023/10/25 04:31:07;;;;;;;12.10;8.13;;;;;;;;;;5024572;28;20650;-69
2023/10/25 04:33:33;;;;;;;18.35;7.65;;;;;;;;;;5024936;28;20715;-69
2023/10/25 04:35:58;;;;;;;19.25;8.20;;;;;;;;;;5034635;28;20195;-69
2023/10/25 04:38:24;;;;;;;12.48;7.82;;;;;;;;;;5023685;28;20205;-69
2023/10/25 04:40:50;;;;;;;15.40;7.93;;;;;;;;;;5022532;28;20232;-68
2023/10/25 04:43:16;;;;;;;17.80;7.80;;;;;;;;;;5028114;28;20186;-69
2023/10/25 04:45:42;;;;;;;18.35;8.10;;;;;;;;;;5019801;28;20217;-69
2023/10/25 04:48:07;;;;;;;18.00;8.52;;;;;;;;;;5032280;28;20261;-69
2023/10/25 04:50:36;;;;;;;13.90;7.95;;;;;;;;;;5027853;28;20197;-69
2023/10/25 04:53:02;;;;;;;17.25;8.20;;;;;;;;;;5020936;28;20206;-69
2023/10/25 04:55:29;;;;;;;17.88;7.97;;;;;;;;;;5031846;28;20263;-69
2023/10/25 04:57:56;;;;;;;18.98;8.13;;;;;;;;;;5030845;28;20186;-69
2023/10/25 05:00:22;;;;;;;23.80;8.87;;;;;;;;;;5025152;28;20220;-69
2023/10/25 05:02:47;;;;;;;15.27;8.20;;;;;;;;;;5026641;28;20190;-69
2023/10/25 05:05:12;;;;;;;18.77;9.07;;;;;;;;;;5032515;28;20202;-69
2023/10/25 05:07:38;;;;;;;15.60;8.27;;;;;;;;;;5029716;28;20205;-69
2023/10/25 05:10:08;;;;;;;15.32;8.38;;;;;;;;;;5029928;28;20209;-69
2023/10/25 05:12:41;;;;;;;17.65;8.40;;;;;;;;;;5033085;28;20670;-69
2023/10/25 05:15:17;;;;;;;15.00;8.32;;;;;;;;;;5037100;28;20244;-69
2023/10/25 05:17:44;;;;;;;17.95;9.20;;;;;;;;;;5029537;28;20190;-69
2023/10/25 05:20:10;;;;;;;18.33;8.60;;;;;;;;;;5032207;28;20217;-69
2023/10/25 05:22:38;;;;;;;19.27;8.98;;;;;;;;;;5025100;28;20286;-70
2023/10/25 05:25:05;;;;;;;19.75;9.20;;;;;;;;;;5026436;28;20594;-69
2023/10/25 05:27:32;;;;;;;18.48;8.77;;;;;;;;;;5032067;28;20277;-69
2023/10/25 05:30:01;;;;;;;18.45;9.05;;;;;;;;;;5043715;28;20197;-69
2023/10/25 05:32:29;;;;;;;24.02;8.80;;;;;;;;;;5017618;28;20236;-69
2023/10/25 05:35:00;;;;;;;22.05;9.43;;;;;;;;;;5022439;28;20284;-69
2023/10/25 05:37:26;;;;;;;20.38;9.95;;;;;;;;;;5031089;28;20728;-70
2023/10/25 05:39:52;;;;;;;16.65;8.75;;;;;;;;;;5029707;28;20285;-69
2023/10/25 05:42:19;;;;;;;22.67;10.50;;;;;;;;;;5035549;28;20229;-70
2023/10/25 05:44:46;;;;;;;19.50;11.07;;;;;;;;;;5033318;28;20190;-69
2023/10/25 05:47:11;;;;;;;27.25;11.35;;;;;;;;;;5027567;28;20216;-69
2023/10/25 05:49:37;;;;;;;25.73;10.80;;;;;;;;;;5024814;28;20281;-69
2023/10/25 05:52:03;;;;;;;17.92;9.80;;;;;;;;;;5025789;28;20197;-69
2023/10/25 05:54:28;;;;;;;19.52;11.95;;;;;;;;;;5022235;28;20718;-69
2023/10/25 05:56:54;;;;;;;20.75;11.38;;;;;;;;;;5026330;28;20657;-69
2023/10/25 05:59:19;;;;;;;21.90;11.48;;;;;;;;;;5024182;28;20712;-68
2023/10/25 06:01:49;;;;;;;24.83;12.00;;;;;;;;;;5029337;28;20213;-69
2023/10/25 06:04:15;;;;;;;21.05;12.30;;;;;;;;;;5019801;28;20224;-69
2023/10/25 06:06:43;;;;;;;29.17;12.25;;;;;;;;;;5025813;28;20185;-69
2023/10/25 06:09:08;;;;;;;20.35;12.50;;;;;;;;;;5029721;28;20728;-69
2023/10/25 06:11:34;;;;;;;27.52;13.45;;;;;;;;;;5021812;28;20197;-69
2023/10/25 06:14:00;;;;;;;25.60;13.98;;;;;;;;;;5023570;28;20194;-69
2023/10/25 06:16:25;;;;;;;24.73;12.93;;;;;;;;;;5021589;28;20817;-68
2023/10/25 06:18:51;;;;;;;31.35;13.95;;;;;;;;;;5018546;28;20197;-68
2023/10/25 06:21:16;;;;;;;27.73;13.57;;;;;;;;;;5019425;28;20297;-67
2023/10/25 06:23:41;;;;;;;22.17;12.52;;;;;;;;;;5023853;28;20201;-68
2023/10/25 06:26:07;;;;;;;29.20;13.85;;;;;;;;;;5021257;28;20198;-69
2023/10/25 06:28:33;;;;;;;25.33;13.25;;;;;;;;;;5019713;28;20186;-68
2023/10/25 06:30:58;;;;;;;28.02;14.82;;;;;;;;;;5016065;28;20201;-68
2023/10/25 06:33:25;;;;;;;25.83;13.82;;;;;;;;;;5021572;28;20265;-68
2023/10/25 06:35:50;;;;;;;31.17;15.93;;;;;;;;;;5024871;28;20186;-68
2023/10/25 06:38:16;;;;;;;25.20;12.95;;;;;;;;;;5028651;28;20243;-69
2023/10/25 06:40:42;;;;;;;18.65;11.75;;;;;;;;;;5028690;28;20321;-69
2023/10/25 06:43:08;;;;;;;29.30;14.43;;;;;;;;;;5030767;28;20709;-69
2023/10/25 06:45:33;;;;;;;24.50;13.48;;;;;;;;;;5033134;28;20202;-68
2023/10/25 06:48:00;;;;;;;24.20;13.23;;;;;;;;;;5013821;28;20347;-69
2023/10/25 06:50:26;;;;;;;24.98;12.80;;;;;;;;;;5023247;28;20186;-69
2023/10/25 06:52:52;;;;;;;26.98;13.18;;;;;;;;;;5034415;28;20198;-71
2023/10/25 06:55:18;;;;;;;22.52;12.52;;;;;;;;;;5028318;28;20202;-69
2023/10/25 06:57:44;;;;;;;23.00;12.48;;;;;;;;;;5026209;28;20672;-69
2023/10/25 07:00:10;;;;;;;23.60;12.00;;;;;;;;;;5031475;28;20692;-69
2023/10/25 07:02:52;;;;;;;21.50;12.35;;;;;;;;;;5025903;28;20193;-69
2023/10/25 07:05:21;;;;;;;23.17;11.23;;;;;;;;;;5022350;28;20550;-69
2023/10/25 07:07:49;;;;;;;19.67;10.75;;;;;;;;;;5022149;28;20222;-70
2023/10/25 07:10:15;;;;;;;24.23;11.45;;;;;;;;;;5020696;28;20541;-69
2023/10/25 07:12:40;;;;;;;22.10;11.32;;;;;;;;;;5012596;28;20194;-69
2023/10/25 07:15:06;;;;;;;23.95;11.05;;;;;;;;;;5018766;28;20221;-71
2023/10/25 07:17:31;;;;;;;19.42;11.38;;;;;;;;;;5030037;28;20202;-70
2023/10/25 07:20:00;;;;;;;13.73;9.90;;;;;;;;;;5017244;28;20217;-70
2023/10/25 07:22:26;;;;;;;20.60;10.10;;;;;;;;;;5029878;28;20197;-70
2023/10/25 07:24:52;;;;;;;18.08;9.95;;;;;;;;;;5025875;28;20194;-71
2023/10/25 07:27:17;;;;;;;18.75;9.18;;;;;;;;;;5023988;28;20201;-71
2023/10/25 07:29:42;;;;;;;15.20;9.60;;;;;;;;;;5028095;28;20224;-70
2023/10/25 07:32:08;;;;;;;21.02;9.05;;;;;;;;;;5027658;28;20722;-71
2023/10/25 07:34:33;;;;;;;22.27;10.30;;;;;;;;;;5026674;28;20201;-70
2023/10/25 07:36:59;;;;;;;14.50;8.40;;;;;;;;;;5029319;28;20232;-70
2023/10/25 07:39:24;;;;;;;19.52;9.23;;;;;;;;;;5032971;28;20559;-69
2023/10/25 07:41:49;;;;;;;18.73;8.90;;;;;;;;;;4332840;28;10000679;-69
2023/10/25 07:44:15;;;;;;;16.42;8.73;;;;;;;;;;5020129;28;22696;-69
2023/10/25 07:46:40;;;;;;;13.80;8.00;;;;;;;;;;5025779;28;20824;-69
2023/10/25 07:49:06;;;;;;;17.42;8.32;;;;;;;;;;5019636;28;20181;-69
2023/10/25 07:51:31;;;;;;;15.77;7.70;;;;;;;;;;5010372;28;20720;-71
2023/10/25 07:53:56;;;;;;;16.13;8.35;;;;;;;;;;5018575;28;20197;-69
2023/10/25 07:56:23;;;;;;;19.27;8.85;;;;;;;;;;5026864;28;20193;-69
2023/10/25 07:58:48;;;;;;;15.90;8.30;;;;;;;;;;5019552;28;20190;-69
2023/10/25 08:01:14;;;;;;;16.85;8.18;;;;;;;;;;5014890;28;20632;-69
2023/10/25 08:03:39;;;;;;;17.33;8.40;;;;;;;;;;5021884;28;20298;-70
2023/10/25 08:06:05;;;;;;;18.10;9.05;;;;;;;;;;5038485;28;20213;-69
2023/10/25 08:08:31;;;;;;;19.92;9.40;;;;;;;;;;5020745;28;20205;-70
2023/10/25 08:11:01;;;;;;;25.88;9.75;;;;;;;;;;5019083;28;20299;-69
2023/10/25 08:13:26;;;;;;;16.95;8.90;;;;;;;;;;5017365;28;20201;-69
2023/10/25 08:16:01;;;;;;;17.85;9.48;;;;;;;;;;5020931;28;20583;-70
2023/10/25 08:18:27;;;;;;;20.88;9.40;;;;;;;;;;5016622;28;20189;-69
2023/10/25 08:20:54;;;;;;;18.77;8.40;;;;;;;;;;5033559;28;20216;-70
2023/10/25 08:23:19;;;;;;;18.38;8.82;;;;;;;;;;5029269;28;20193;-69
2023/10/25 08:25:44;;;;;;;12.98;7.57;;;;;;;;;;5022075;28;20268;-70
2023/10/25 08:28:10;;;;;;;18.92;8.32;;;;;;;;;;5029886;28;20277;-70
2023/10/25 08:30:35;;;;;;;14.30;7.53;;;;;;;;;;5030341;28;20185;-70
2023/10/25 08:33:01;;;;;;;14.73;6.57;;;;;;;;;;5023229;28;20218;-70
2023/10/25 08:35:27;;;;;;;12.63;6.15;;;;;;;;;;5019895;28;20193;-70
2023/10/25 08:37:52;;;;;;;10.80;6.03;;;;;;;;;;5021936;28;20285;-69
2023/10/25 08:40:18;;;;;;;11.95;6.65;;;;;;;;;;5026412;28;20689;-69
2023/10/25 08:42:43;;;;;;;10.43;5.82;;;;;;;;;;5025014;28;20220;-69
2023/10/25 08:45:09;;;;;;;17.35;5.82;;;;;;;;;;5020363;28;20712;-69
2023/10/25 08:47:35;;;;;;;10.10;5.43;;;;;;;;;;5027008;28;20277;-70
2023/10/25 08:50:03;;;;;;;11.82;5.53;;;;;;;;;;5015275;28;20345;-69
2023/10/25 08:52:29;;;;;;;12.75;5.72;;;;;;;;;;5020864;28;20345;-71
2023/10/25 08:54:54;;;;;;;15.20;5.90;;;;;;;;;;5025689;28;20194;-70
2023/10/25 08:57:20;;;;;;;14.25;5.70;;;;;;;;;;5029459;28;20202;-70
2023/10/25 08:59:47;;;;;;;10.10;5.32;;;;;;;;;;5031973;28;20186;-70
2023/10/25 09:02:13;;;;;;;10.40;4.63;;;;;;;;;;5035795;28;20185;-70
2023/10/25 09:04:57;;;;;;;8.55;4.63;;;;;;;;;;5030454;28;20196;-71
2023/10/25 09:07:28;;;;;;;6.97;3.70;;;;;;;;;;5012543;28;20539;-70
2023/10/25 09:09:53;;;;;;;12.60;3.95;;;;;;;;;;5026009;28;20233;-70
2023/10/25 09:12:20;;;;;;;11.00;4.20;;;;;;;;;;5032086;28;20206;-70
2023/10/25 09:14:47;;;;;;;9.27;4.22;;;;;;;;;;5032067;28;20210;-70
2023/10/25 09:17:12;;;;;;;8.13;3.72;;;;;;;;;;5032276;28;20190;-70
2023/10/25 09:19:42;;;;;;;8.68;3.40;;;;;;;;;;5023743;28;20191;-70
2023/10/25 09:22:21;;;;;;;7.45;3.60;;;;;;;;;;5015634;28;20187;-70
2023/10/25 09:24:47;;;;;;;7.13;3.28;;;;;;;;;;5021057;28;20191;-70
2023/10/25 09:27:13;;;;;;;15.15;4.63;;;;;;;;;;5032043;28;20372;-70
2023/10/25 09:29:38;;;;;;;13.00;3.20;;;;;;;;;;5030852;28;20673;-70
2023/10/25 09:32:07;;;;;;;9.65;3.67;;;;;;;;;;5020564;28;20190;-70
2023/10/25 09:34:34;;;;;;;9.02;3.38;;;;;;;;;;5021468;28;20205;-70
2023/10/25 09:37:04;;;;;;;6.60;3.15;;;;;;;;;;5016487;28;20399;-70
2023/10/25 09:39:31;;;;;;;9.00;3.30;;;;;;;;;;5020048;28;20610;-70
2023/10/25 09:42:01;;;;;;;7.25;3.50;;;;;;;;;;5026906;28;20247;-69
2023/10/25 09:44:37;;;;;;;9.85;3.45;;;;;;;;;;5017092;28;20232;-70
2023/10/25 09:47:08;;;;;;;7.25;3.40;;;;;;;;;;5022386;28;20705;-70
2023/10/25 09:49:33;;;;;;;6.50;3.20;;;;;;;;;;5024740;28;20251;-69
2023/10/25 09:52:06;;;;;;;5.90;3.10;;;;;;;;;;5027676;28;20300;-69
2023/10/25 09:54:33;;;;;;;7.90;3.42;;;;;;;;;;5022608;28;20668;-70
2023/10/25 09:56:59;;;;;;;6.78;3.08;;;;;;;;;;5023312;28;20194;-69
2023/10/25 09:59:30;;;;;;;6.35;3.08;;;;;;;;;;5028145;28;20190;-70
2023/10/25 10:01:56;;;;;;;6.65;2.97;;;;;;;;;;5029872;28;20214;-69
2023/10/25 10:04:41;;;;;;;3.97;2.80;;;;;;;;;;5017214;28;20182;-71
2023/10/25 10:07:32;;;;;;;6.68;2.80;;;;;;;;;;5019879;28;20245;-70
2023/10/25 10:10:34;;;;;;;7.25;2.80;;;;;;;;;;5011339;28;20677;-69
2023/10/25 10:13:13;;;;;;;10.60;2.70;;;;;;;;;;5023058;28;20217;-69
2023/10/25 10:16:11;;;;;;;7.18;2.72;;;;;;;;;;5016828;28;20237;-69
2023/10/25 10:18:45;;;;;;;7.32;2.63;;;;;;;;;;5023565;28;20326;-71
2023/10/25 10:21:12;;;;;;;6.18;1.98;;;;;;;;;;5024179;28;20233;-69
2023/10/25 10:23:46;;;;;;;5.50;2.28;;;;;;;;;;5021664;28;20273;-70
2023/10/25 10:26:11;;;;;;;5.63;2.10;;;;;;;;;;5017629;28;20222;-69
2023/10/25 10:28:43;;;;;;;5.68;2.45;;;;;;;;;;5015403;28;20280;-70
2023/10/25 10:31:11;;;;;;;7.60;3.15;;;;;;;;;;5020617;28;20759;-68
2023/10/25 10:33:44;;;;;;;8.25;2.97;;;;;;;;;;5013281;28;20258;-69
2023/10/25 10:36:10;;;;;;;7.47;2.72;;;;;;;;;;5027098;28;20194;-69
2023/10/25 10:39:14;;;;;;;4.55;2.50;;;;;;;;;;5025277;28;20226;-69
2023/10/25 10:41:44;;;;;;;5.75;2.28;;;;;;;;;;5018593;28;20257;-69
2023/10/25 10:44:13;;;;;;;7.88;2.78;;;;;;;;;;5016627;28;20240;-68
2023/10/25 10:46:51;;;;;;;4.82;2.53;;;;;;;;;;5012166;28;20207;-69
2023/10/25 10:49:21;;;;;;;7.63;2.50;;;;;;;;;;5011140;28;20263;-69
2023/10/25 10:51:47;;;;;;;7.10;2.72;;;;;;;;;;5028378;28;20720;-70
2023/10/25 10:54:13;;;;;;;5.07;2.45;;;;;;;;;;5030909;28;20251;-70
2023/10/25 10:56:38;;;;;;;5.10;2.63;;;;;;;;;;5025788;28;20201;-70
2023/10/25 10:59:05;;;;;;;6.47;2.67;;;;;;;;;;5022143;28;20297;-70
2023/10/25 11:01:30;;;;;;;5.30;2.60;;;;;;;;;;5021236;28;20245;-70
2023/10/25 11:03:59;;;;;;;7.75;3.00;;;;;;;;;;5020420;28;20252;-70
2023/10/25 11:06:25;;;;;;;9.35;2.90;;;;;;;;;;5024379;28;20190;-70
2023/10/25 11:08:52;;;;;;;7.88;3.60;;;;;;;;;;5018973;28;20186;-70
2023/10/25 11:11:21;;;;;;;4.70;2.25;;;;;;;;;;5024871;28;20213;-69
2023/10/25 11:13:49;;;;;;;7.00;3.20;;;;;;;;;;5024511;28;20614;-69
2023/10/25 11:16:14;;;;;;;7.57;2.72;;;;;;;;;;5021765;28;20243;-70
2023/10/25 11:18:39;;;;;;;9.52;3.55;;;;;;;;;;5029428;28;20224;-70
2023/10/25 11:21:05;;;;;;;8.63;3.20;;;;;;;;;;5025582;28;20257;-70
2023/10/25 11:23:30;;;;;;;9.35;3.75;;;;;;;;;;5027003;28;20664;-70
2023/10/25 11:25:56;;;;;;;7.15;2.92;;;;;;;;;;5024220;28;20198;-70
2023/10/25 11:28:23;;;;;;;7.70;3.20;;;;;;;;;;5040898;28;20284;-70
2023/10/25 11:30:50;;;;;;;8.60;3.20;;;;;;;;;;5021603;28;20195;-70
2023/10/25 11:33:15;;;;;;;7.07;3.00;;;;;;;;;;5033873;28;20253;-70
2023/10/25 11:35:43;;;;;;;7.85;3.25;;;;;;;;;;5029098;28;20182;-70
2023/10/25 11:38:12;;;;;;;5.22;3.25;;;;;;;;;;5027367;28;20608;-70
2023/10/25 11:40:41;;;;;;;8.77;3.42;;;;;;;;;;5014098;28;20241;-70
2023/10/25 11:43:07;;;;;;;9.35;3.25;;;;;;;;;;5021509;28;20204;-70
2023/10/25 11:45:33;;;;;;;5.43;3.17;;;;;;;;;;5032472;28;20693;-70
2023/10/25 11:47:58;;;;;;;8.75;3.63;;;;;;;;;;5026058;28;20335;-70
2023/10/25 11:50:24;;;;;;;10.13;3.30;;;;;;;;;;5014977;28;20194;-70
2023/10/25 11:52:49;;;;;;;7.78;3.53;;;;;;;;;;5023321;28;20206;-70
2023/10/25 11:55:14;;;;;;;5.95;3.20;;;;;;;;;;5028045;28;20602;-71
2023/10/25 11:57:42;;;;;;;8.02;3.78;;;;;;;;;;5020198;28;20212;-71
2023/10/25 12:00:08;;;;;;;7.50;3.40;;;;;;;;;;5025179;28;20220;-71
2023/10/25 12:02:34;;;;;;;5.88;3.47;;;;;;;;;;5016265;28;20209;-70
2023/10/25 12:05:01;;;;;;;7.78;3.97;;;;;;;;;;5016176;28;20530;-71
2023/10/25 12:07:27;;;;;;;7.25;3.15;;;;;;;;;;5016485;28;20187;-71
2023/10/25 12:09:53;;;;;;;9.82;3.85;;;;;;;;;;5019908;28;20537;-71
2023/10/25 12:12:20;;;;;;;6.53;3.58;;;;;;;;;;5036906;28;20205;-71
2023/10/25 12:14:45;;;;;;;8.90;3.50;;;;;;;;;;5017585;28;20233;-70
2023/10/25 12:17:11;;;;;;;10.45;3.58;;;;;;;;;;5029325;28;20809;-71
2023/10/25 12:19:39;;;;;;;8.07;3.67;;;;;;;;;;5027207;28;20229;-70
2023/10/25 12:22:07;;;;;;;6.50;3.75;;;;;;;;;;5028017;28;20281;-71
2023/10/25 12:24:32;;;;;;;5.45;3.53;;;;;;;;;;5024647;28;20658;-71
2023/10/25 12:26:58;;;;;;;8.95;3.60;;;;;;;;;;5028683;28;20181;-71
2023/10/25 12:29:25;;;;;;;6.50;3.90;;;;;;;;;;5026688;28;20182;-71
2023/10/25 12:31:50;;;;;;;10.35;3.85;;;;;;;;;;5019163;28;20615;-71
2023/10/25 12:34:15;;;;;;;7.38;3.35;;;;;;;;;;5027229;28;20244;-71
2023/10/25 12:36:41;;;;;;;8.90;3.50;;;;;;;;;;5028417;28;20190;-71
2023/10/25 12:39:06;;;;;;;8.05;3.85;;;;;;;;;;5034718;28;20585;-71
2023/10/25 12:41:35;;;;;;;6.80;3.42;;;;;;;;;;5048096;28;20295;-71
2023/10/25 12:44:08;;;;;;;5.95;3.30;;;;;;;;;;5025085;28;20206;-71
2023/10/25 12:46:34;;;;;;;7.07;3.60;;;;;;;;;;5035673;28;20189;-71
2023/10/25 12:49:00;;;;;;;12.35;3.83;;;;;;;;;;5024536;28;20197;-71
2023/10/25 12:51:25;;;;;;;6.30;3.47;;;;;;;;;;5029919;28;20183;-71
2023/10/25 12:53:50;;;;;;;8.77;3.78;;;;;;;;;;5027630;28;20255;-71
2023/10/25 12:56:16;;;;;;;8.00;4.20;;;;;;;;;;5037576;28;20194;-71
2023/10/25 12:58:42;;;;;;;7.70;3.92;;;;;;;;;;5013610;28;20538;-71
2023/10/25 13:01:08;;;;;;;8.23;3.28;;;;;;;;;;5023423;28;20215;-71
2023/10/25 13:03:33;;;;;;;6.45;3.45;;;;;;;;;;5022534;28;20201;-71
2023/10/25 13:05:59;;;;;;;8.23;4.15;;;;;;;;;;5035540;28;20628;-71
2023/10/25 13:08:25;;;;;;;8.18;3.95;;;;;;;;;;5029715;28;20201;-70
2023/10/25 13:10:50;;;;;;;6.45;3.88;;;;;;;;;;5026076;28;20209;-71
2023/10/25 13:13:16;;;;;;;6.65;3.78;;;;;;;;;;5028762;28;20178;-71
2023/10/25 13:15:41;;;;;;;9.63;4.43;;;;;;;;;;5037435;28;20755;-72
2023/10/25 13:18:07;;;;;;;7.82;3.83;;;;;;;;;;5028114;28;20230;-73
2023/10/25 13:20:32;;;;;;;6.43;3.85;;;;;;;;;;5026611;28;20210;-74
2023/10/25 13:22:58;;;;;;;7.78;3.67;;;;;;;;;;5030432;28;20272;-73
2023/10/25 13:25:25;;;;;;;9.63;3.55;;;;;;;;;;5030314;28;20197;-73
2023/10/25 13:27:51;;;;;;;6.22;4.15;;;;;;;;;;5033982;28;20664;-73
2023/10/25 13:30:16;;;;;;;8.77;3.92;;;;;;;;;;5033397;28;20182;-71
2023/10/25 13:32:42;;;;;;;7.45;3.72;;;;;;;;;;5027483;28;20197;-73
2023/10/25 13:35:08;;;;;;;9.38;4.30;;;;;;;;;;5033240;28;20293;-73
2023/10/25 13:37:33;;;;;;;9.18;3.90;;;;;;;;;;5029016;28;20214;-73
2023/10/25 13:39:59;;;;;;;7.72;4.30;;;;;;;;;;5031619;28;20240;-73
2023/10/25 13:42:24;;;;;;;7.97;4.30;;;;;;;;;;5029860;28;20221;-73
2023/10/25 13:44:49;;;;;;;11.25;4.43;;;;;;;;;;5030818;28;20198;-72
2023/10/25 13:47:15;;;;;;;11.45;4.68;;;;;;;;;;5024728;28;20186;-73
2023/10/25 13:49:41;;;;;;;8.93;4.78;;;;;;;;;;5028615;28;20206;-75
2023/10/25 13:52:06;;;;;;;12.00;5.32;;;;;;;;;;5026732;28;20193;-75
2023/10/25 13:54:32;;;;;;;12.52;5.13;;;;;;;;;;5021728;28;20183;-74
2023/10/25 13:56:57;;;;;;;12.45;5.30;;;;;;;;;;5045588;28;20274;-76
2023/10/25 13:59:23;;;;;;;11.43;5.97;;;;;;;;;;5031834;28;20213;-74
2023/10/25 14:01:48;;;;;;;9.73;5.57;;;;;;;;;;5041363;28;20213;-75
2023/10/25 14:04:13;;;;;;;8.68;5.88;;;;;;;;;;5018926;28;20281;-74
2023/10/25 14:06:39;;;;;;;10.93;6.00;;;;;;;;;;5014168;28;20189;-75
2023/10/25 14:09:05;;;;;;;11.20;5.57;;;;;;;;;;5029575;28;20573;-75
2023/10/25 14:11:30;;;;;;;9.07;5.63;;;;;;;;;;5027424;28;20212;-75
2023/10/25 14:13:58;;;;;;;10.43;5.63;;;;;;;;;;5023216;28;20189;-75
2023/10/25 14:16:23;;;;;;;10.45;5.85;;;;;;;;;;5013973;28;20217;-75
2023/10/25 14:18:49;;;;;;;13.45;6.63;;;;;;;;;;5039988;28;20623;-74
2023/10/25 14:21:16;;;;;;;9.25;6.32;;;;;;;;;;5041832;28;20214;-77
2023/10/25 14:23:45;;;;;;;11.38;6.50;;;;;;;;;;5032252;28;20249;-75
2023/10/25 14:26:10;;;;;;;12.20;6.05;;;;;;;;;;5037363;28;20197;-76
2023/10/25 14:28:36;;;;;;;10.10;6.75;;;;;;;;;;5028076;28;20629;-75